Time;durP1;ratioP1;P1;durP2;ratioP2;P2;SDS_P1;SDS_P2;PMS_P1;PMS_P2;Temp;Humidity;BMP_temperature;BMP_pressure;BME280_temperature;BME280_humidity;BME280_pressure;Samples;Min_cycle;Max_cycle;Signal;HPM_P1;HPM_P2
2022/10/24 00:00:42;;;;;;;0.70;0.70;;;;;;;13.92;71.64;100115.88;5027282;28;20212;-68
2022/10/24 00:03:09;;;;;;;0.50;0.50;;;;;;;13.87;71.94;100120.31;5032734;28;20256;-68
2022/10/24 00:05:36;;;;;;;0.60;0.60;;;;;;;13.74;72.34;100104.41;5030960;28;20204;-69
2022/10/24 00:08:03;;;;;;;0.50;0.50;;;;;;;13.85;72.76;100124.69;5030632;28;20229;-67
2022/10/24 00:10:30;;;;;;;0.60;0.60;;;;;;;13.83;72.77;100113.59;5031014;28;20646;-68
2022/10/24 00:12:58;;;;;;;0.50;0.50;;;;;;;13.81;72.99;100116.19;5013934;28;20624;-67
2022/10/24 00:15:25;;;;;;;0.43;0.43;;;;;;;13.65;72.97;100108.13;5030290;28;20205;-67
2022/10/24 00:17:52;;;;;;;0.40;0.40;;;;;;;13.75;73.67;100115.56;5029371;28;20208;-67
2022/10/24 00:20:19;;;;;;;0.47;0.47;;;;;;;13.77;73.90;100113.75;5030646;28;20695;-67
2022/10/24 00:22:46;;;;;;;0.57;0.57;;;;;;;13.75;73.29;100110.41;5030515;28;20205;-68
2022/10/24 00:25:13;;;;;;;0.70;0.70;;;;;;;13.74;73.21;100103.56;5028885;28;20206;-67
2022/10/24 00:27:40;;;;;;;0.40;0.40;;;;;;;13.72;73.12;100110.50;5030435;28;20204;-68
2022/10/24 00:30:09;;;;;;;0.57;0.57;;;;;;;13.63;73.55;100101.34;5030832;28;20197;-67
2022/10/24 00:32:36;;;;;;;0.53;0.53;;;;;;;13.59;73.88;100087.69;5031674;28;20201;-67
2022/10/24 00:35:03;;;;;;;0.43;0.43;;;;;;;13.58;74.17;100109.19;5032418;28;20205;-67
2022/10/24 00:37:30;;;;;;;0.67;0.67;;;;;;;13.54;74.39;100107.59;5030054;28;20694;-68
2022/10/24 00:39:57;;;;;;;0.43;0.43;;;;;;;13.47;74.21;100111.25;5030187;28;20197;-68
2022/10/24 00:42:23;;;;;;;0.50;0.50;;;;;;;13.41;74.49;100116.59;5030114;28;20632;-68
2022/10/24 00:44:53;;;;;;;0.40;0.40;;;;;;;13.25;74.72;100110.22;5030493;28;20605;-67
2022/10/24 00:47:24;;;;;;;0.40;0.40;;;;;;;13.19;74.41;100114.69;5030484;28;20665;-68
2022/10/24 00:49:59;;;;;;;0.53;0.53;;;;;;;13.15;74.72;100108.78;5030000;28;20229;-68
2022/10/24 00:52:29;;;;;;;0.50;0.50;;;;;;;13.08;75.62;100107.28;5030686;28;20624;-68
2022/10/24 00:54:58;;;;;;;0.50;0.50;;;;;;;13.00;75.98;100099.75;5030301;28;20205;-67
2022/10/24 00:57:30;;;;;;;0.60;0.60;;;;;;;12.99;76.19;100102.38;5030283;28;20202;-68
2022/10/24 01:00:03;;;;;;;0.40;0.40;;;;;;;12.82;76.06;100073.72;5030133;28;20212;-68
2022/10/24 01:02:31;;;;;;;0.50;0.50;;;;;;;12.89;76.34;100095.81;5030191;28;20569;-68
2022/10/24 01:04:59;;;;;;;0.43;0.43;;;;;;;12.77;77.17;100075.56;5030424;28;20201;-68
2022/10/24 01:07:40;;;;;;;0.50;0.50;;;;;;;12.84;76.93;100088.22;5029048;28;20236;-68
2022/10/24 01:10:32;;;;;;;0.60;0.60;;;;;;;12.81;77.43;100082.31;5029074;28;20197;-68
2022/10/24 01:13:06;;;;;;;0.50;0.50;;;;;;;12.76;77.70;100073.91;5026119;28;20197;-67
2022/10/24 01:15:42;;;;;;;0.70;0.70;;;;;;;12.82;77.57;100084.84;5029410;28;20660;-68
2022/10/24 01:18:17;;;;;;;0.60;0.60;;;;;;;12.82;77.49;100084.84;5029330;28;20204;-68
2022/10/24 01:21:09;;;;;;;0.47;0.47;;;;;;;12.79;77.45;100074.66;5029774;28;20203;-67
2022/10/24 01:24:04;;;;;;;0.50;0.50;;;;;;;12.77;77.80;100076.41;5029801;28;20708;-67
2022/10/24 01:26:59;;;;;;;0.60;0.60;;;;;;;12.77;77.65;100081.56;5030600;28;20570;-67
2022/10/24 01:29:46;;;;;;;0.60;0.60;;;;;;;12.70;78.15;100074.88;5029059;28;20236;-67
2022/10/24 01:32:23;;;;;;;0.40;0.40;;;;;;;12.55;78.05;100050.44;5030099;28;20711;-67
2022/10/24 01:34:58;;;;;;;0.60;0.60;;;;;;;12.68;78.60;100079.25;5031863;28;20291;-67
2022/10/24 01:37:33;;;;;;;0.57;0.57;;;;;;;12.62;78.68;100076.84;5029720;28;20209;-67
2022/10/24 01:40:06;;;;;;;0.50;0.50;;;;;;;12.63;78.59;100084.50;5029743;28;20189;-68
2022/10/24 01:42:36;;;;;;;0.70;0.70;;;;;;;12.62;79.38;100090.56;5029976;28;20209;-67
2022/10/24 01:45:07;;;;;;;0.40;0.40;;;;;;;12.55;79.74;100081.31;5029837;28;20199;-67
2022/10/24 01:47:40;;;;;;;0.43;0.43;;;;;;;12.57;80.61;100084.69;5029791;28;20194;-68
2022/10/24 01:50:11;;;;;;;0.50;0.50;;;;;;;12.57;80.40;100084.69;5033181;28;20213;-68
2022/10/24 01:52:42;;;;;;;0.60;0.60;;;;;;;12.59;80.59;100076.94;5033454;28;20201;-67
2022/10/24 01:55:11;;;;;;;0.50;0.50;;;;;;;12.58;80.42;100076.09;5033694;28;20209;-67
2022/10/24 01:57:38;;;;;;;0.50;0.50;;;;;;;12.59;80.73;100084.66;5033534;28;20631;-67
2022/10/24 02:00:10;;;;;;;4.43;0.77;;;;;;;12.56;81.00;100083.00;5033045;28;20197;-68
2022/10/24 02:02:41;;;;;;;0.50;0.50;;;;;;;12.54;80.88;100089.91;5035674;28;20624;-67
2022/10/24 02:05:13;;;;;;;0.50;0.50;;;;;;;12.49;81.13;100076.34;5033851;28;20201;-67
2022/10/24 02:07:42;;;;;;;0.50;0.50;;;;;;;12.57;80.75;100094.97;5033015;28;20229;-67
2022/10/24 02:10:12;;;;;;;0.40;0.40;;;;;;;12.59;80.71;100103.50;5032138;28;20228;-68
2022/10/24 02:12:42;;;;;;;0.63;0.63;;;;;;;12.61;80.02;100100.88;5032022;28;20201;-68
2022/10/24 02:15:16;;;;;;;0.50;0.50;;;;;;;12.60;79.66;100100.03;5031527;28;20206;-68
2022/10/24 02:17:43;;;;;;;0.50;0.50;;;;;;;12.58;79.88;100100.97;5033029;28;20205;-68
2022/10/24 02:20:11;;;;;;;0.40;0.40;;;;;;;12.45;79.72;100077.31;5032970;28;20232;-68
2022/10/24 02:22:45;;;;;;;0.70;0.70;;;;;;;12.52;79.93;100107.13;5032903;28;20201;-67
2022/10/24 02:25:19;;;;;;;2.43;0.70;;;;;;;12.50;80.77;100097.75;5032939;28;20194;-67
2022/10/24 02:27:50;;;;;;;0.67;0.67;;;;;;;12.53;80.30;100103.66;5032854;28;20578;-67
2022/10/24 02:30:21;;;;;;;0.50;0.50;;;;;;;12.55;80.34;100112.19;5033810;28;20225;-67
2022/10/24 02:32:52;;;;;;;0.50;0.50;;;;;;;12.55;80.17;100112.19;5034621;28;20709;-67
2022/10/24 02:35:23;;;;;;;0.50;0.50;;;;;;;12.50;80.48;100106.28;5032466;28;20202;-67
2022/10/24 02:37:53;;;;;;;0.80;0.80;;;;;;;12.47;80.44;100087.56;5032148;28;20677;-68
2022/10/24 02:40:22;;;;;;;0.60;0.60;;;;;;;12.44;80.61;100098.75;5024890;28;20581;-67
2022/10/24 02:42:53;;;;;;;0.50;0.50;;;;;;;12.47;80.67;100103.81;5032291;28;20204;-67
2022/10/24 02:45:23;;;;;;;0.60;0.60;;;;;;;12.37;81.63;100101.53;5032431;28;20209;-67
2022/10/24 02:47:55;;;;;;;0.73;0.73;;;;;;;12.36;81.49;100099.84;5032990;28;20684;-68
2022/10/24 02:50:22;;;;;;;0.70;0.70;;;;;;;12.37;81.29;100094.69;5032208;28;20222;-68
2022/10/24 02:52:49;;;;;;;0.63;0.63;;;;;;;12.37;81.18;100102.38;5032366;28;20194;-68
2022/10/24 02:55:16;;;;;;;0.60;0.60;;;;;;;12.41;80.68;100097.97;5032222;28;20197;-68
2022/10/24 02:57:43;;;;;;;0.50;0.50;;;;;;;12.38;80.55;100101.47;5032309;28;20197;-67
2022/10/24 03:00:11;;;;;;;0.50;0.50;;;;;;;12.36;80.66;100100.69;5032229;28;20716;-67
2022/10/24 03:02:39;;;;;;;0.50;0.50;;;;;;;12.34;80.30;100107.59;5031574;28;20198;-67
2022/10/24 03:05:07;;;;;;;0.80;0.80;;;;;;;12.32;80.58;100113.66;5032056;28;20581;-68
2022/10/24 03:07:33;;;;;;;0.57;0.57;;;;;;;12.30;81.03;100100.84;5030921;28;20314;-67
2022/10/24 03:10:00;;;;;;;0.40;0.40;;;;;;;12.28;80.62;100102.59;5031818;28;20685;-67
2022/10/24 03:12:27;;;;;;;0.40;0.40;;;;;;;12.22;81.04;100102.75;5031745;28;20208;-68
2022/10/24 03:14:54;;;;;;;0.70;0.70;;;;;;;12.27;81.16;100105.22;5032093;28;20205;-67
2022/10/24 03:17:22;;;;;;;0.57;0.57;;;;;;;12.24;80.68;100101.03;5031911;28;20255;-67
2022/10/24 03:19:50;;;;;;;0.60;0.60;;;;;;;12.22;81.33;100101.91;5031994;28;20201;-67
2022/10/24 03:22:17;;;;;;;0.40;0.40;;;;;;;12.11;81.35;100084.22;5023869;28;20643;-68
2022/10/24 03:24:43;;;;;;;0.47;0.47;;;;;;;12.14;80.84;100084.13;5030138;28;20193;-67
2022/10/24 03:27:10;;;;;;;0.50;0.50;;;;;;;12.05;80.82;100084.38;5031790;28;20201;-67
2022/10/24 03:29:37;;;;;;;0.50;0.50;;;;;;;12.14;81.29;100098.72;5031239;28;20227;-67
2022/10/24 03:32:05;;;;;;;0.53;0.53;;;;;;;12.07;81.90;100093.72;5031915;28;20646;-68
2022/10/24 03:34:32;;;;;;;1.33;1.33;;;;;;;12.11;81.92;100097.06;5031721;28;20197;-67
2022/10/24 03:37:00;;;;;;;0.80;0.80;;;;;;;12.10;81.66;100097.94;5031244;28;20198;-68
2022/10/24 03:39:27;;;;;;;1.17;1.17;;;;;;;12.08;81.40;100089.44;5031361;28;20217;-67
2022/10/24 03:41:54;;;;;;;0.70;0.70;;;;;;;12.03;81.74;100091.25;5031138;28;20255;-67
2022/10/24 03:44:21;;;;;;;0.50;0.50;;;;;;;12.00;82.58;100097.34;5033117;28;20193;-67
2022/10/24 03:46:48;;;;;;;0.73;0.73;;;;;;;12.03;81.98;100086.97;5033012;28;20252;-68
2022/10/24 03:49:14;;;;;;;0.93;0.93;;;;;;;12.04;82.15;100090.38;5030982;28;20217;-68
2022/10/24 03:51:41;;;;;;;0.50;0.50;;;;;;;12.03;82.64;100098.97;5028158;28;20205;-68
2022/10/24 03:54:10;;;;;;;2.40;1.10;;;;;;;11.91;82.33;100076.16;5031111;28;20212;-67
2022/10/24 03:56:37;;;;;;;0.67;0.67;;;;;;;12.03;82.27;100093.84;5030849;28;20205;-67
2022/10/24 03:59:04;;;;;;;0.70;0.70;;;;;;;12.04;81.80;100098.09;5030906;28;20563;-67
2022/10/24 04:01:30;;;;;;;1.57;1.40;;;;;;;12.00;82.42;100097.34;5031191;28;20271;-67
2022/10/24 04:03:57;;;;;;;2.47;2.33;;;;;;;11.93;82.46;100090.66;5030061;28;20197;-67
2022/10/24 04:06:24;;;;;;;1.07;1.07;;;;;;;11.95;82.22;100104.31;5029935;28;20229;-67
2022/10/24 04:08:51;;;;;;;1.13;1.13;;;;;;;11.94;82.16;100099.22;5030812;28;20201;-67
2022/10/24 04:11:19;;;;;;;0.50;0.50;;;;;;;11.86;82.43;100099.38;5031509;28;20228;-69
2022/10/24 04:13:46;;;;;;;0.60;0.60;;;;;;;11.85;82.63;100091.72;5031267;28;20217;-68
2022/10/24 04:16:13;;;;;;;0.90;0.90;;;;;;;11.85;82.57;100091.72;5030550;28;20205;-68
2022/10/24 04:18:39;;;;;;;0.60;0.60;;;;;;;11.85;82.19;100091.72;5028988;28;20209;-67
2022/10/24 04:21:06;;;;;;;0.50;0.50;;;;;;;11.86;82.81;100088.25;5032337;28;20202;-68
2022/10/24 04:23:37;;;;;;;0.40;0.40;;;;;;;11.87;82.62;100082.25;5031045;28;20208;-67
2022/10/24 04:26:04;;;;;;;0.40;0.40;;;;;;;11.82;82.24;100089.25;5031882;28;20193;-68
2022/10/24 04:28:32;;;;;;;0.50;0.50;;;;;;;11.72;83.14;100095.47;5030672;28;20204;-67
2022/10/24 04:30:59;;;;;;;0.60;0.60;;;;;;;11.71;83.44;100088.63;5030436;28;20655;-67
2022/10/24 04:33:26;;;;;;;0.60;0.60;;;;;;;11.65;83.44;100086.19;5027842;28;20217;-67
2022/10/24 04:35:53;;;;;;;0.80;0.80;;;;;;;11.63;83.56;100080.25;5030039;28;20214;-67
2022/10/24 04:38:20;;;;;;;0.63;0.63;;;;;;;11.64;83.47;100087.06;5030098;28;20276;-67
2022/10/24 04:40:49;;;;;;;0.50;0.50;;;;;;;11.64;84.19;100087.91;5030372;28;20274;-67
2022/10/24 04:43:16;;;;;;;0.50;0.50;;;;;;;11.53;84.20;100065.03;5030534;28;20205;-67
2022/10/24 04:45:45;;;;;;;1.07;1.07;;;;;;;11.65;83.90;100088.75;5033715;28;20252;-68
2022/10/24 04:48:12;;;;;;;2.50;2.40;;;;;;;11.64;84.29;100092.19;5030877;28;20201;-67
2022/10/24 04:50:40;;;;;;;5.63;1.00;;;;;;;11.64;84.08;100087.06;5030279;28;20236;-68
2022/10/24 04:53:07;;;;;;;0.80;0.80;;;;;;;11.64;83.59;100087.06;5031339;28;20212;-68
2022/10/24 04:55:35;;;;;;;1.03;1.03;;;;;;;11.59;84.44;100085.47;5032796;28;20193;-67
2022/10/24 04:58:02;;;;;;;0.80;0.80;;;;;;;11.52;84.32;100076.22;5029928;28;20284;-67
2022/10/24 05:00:29;;;;;;;0.50;0.50;;;;;;;11.64;84.09;100084.47;5029904;28;20201;-67
2022/10/24 05:02:57;;;;;;;0.60;0.60;;;;;;;11.66;84.11;100090.44;5030080;28;20577;-68
2022/10/24 05:05:24;;;;;;;0.60;0.60;;;;;;;11.61;84.00;100085.41;5029567;28;20201;-67
2022/10/24 05:07:50;;;;;;;2.90;2.60;;;;;;;11.69;84.18;100098.09;5029504;28;20714;-67
2022/10/24 05:10:17;;;;;;;0.80;0.80;;;;;;;11.64;84.09;100087.06;5029992;28;20635;-68
2022/10/24 05:12:44;;;;;;;0.70;0.70;;;;;;;11.72;84.59;100100.59;5030119;28;20259;-67
2022/10/24 05:15:13;;;;;;;0.40;0.40;;;;;;;11.74;84.30;100103.97;5029809;28;20197;-68
2022/10/24 05:17:41;;;;;;;0.60;0.60;;;;;;;11.75;84.65;100110.81;5030607;28;20573;-67
2022/10/24 05:20:10;;;;;;;0.53;0.53;;;;;;;11.65;85.07;100093.88;5032705;28;20575;-67
2022/10/24 05:22:37;;;;;;;0.57;0.57;;;;;;;11.72;84.70;100104.03;5030343;28;20205;-67
2022/10/24 05:25:05;;;;;;;0.40;0.40;;;;;;;11.78;85.10;100110.72;5030755;28;20673;-67
2022/10/24 05:27:32;;;;;;;1.13;1.13;;;;;;;11.78;85.24;100115.88;5033887;28;20205;-67
2022/10/24 05:29:59;;;;;;;0.60;0.60;;;;;;;11.81;85.47;100120.94;5034363;28;20693;-67
2022/10/24 05:32:26;;;;;;;0.50;0.50;;;;;;;11.87;84.89;100115.66;5032954;28;20208;-67
2022/10/24 05:34:53;;;;;;;0.40;0.40;;;;;;;11.87;84.53;100120.78;5033752;28;20197;-67
2022/10/24 05:37:21;;;;;;;0.93;0.90;;;;;;;11.82;84.63;100105.50;5033421;28;20217;-67
2022/10/24 05:39:49;;;;;;;0.60;0.60;;;;;;;11.93;84.91;100115.50;5033614;28;20197;-68
2022/10/24 05:42:16;;;;;;;0.60;0.60;;;;;;;11.97;84.67;100132.53;5035430;28;20197;-69
2022/10/24 05:44:43;;;;;;;0.50;0.50;;;;;;;12.01;84.69;100123.88;5033866;28;20202;-67
2022/10/24 05:47:10;;;;;;;0.50;0.50;;;;;;;12.03;84.92;100116.97;5034215;28;20696;-68
2022/10/24 05:49:37;;;;;;;0.50;0.50;;;;;;;12.10;84.79;100115.94;5033573;28;20267;-67
2022/10/24 05:52:04;;;;;;;0.50;0.50;;;;;;;12.12;85.38;100116.72;5033568;28;20585;-68
2022/10/24 05:54:32;;;;;;;0.40;0.40;;;;;;;12.17;85.42;100114.06;5034961;28;20596;-66
2022/10/24 05:56:59;;;;;;;0.47;0.47;;;;;;;12.22;85.59;100114.78;5034506;28;20511;-64
2022/10/24 05:59:26;;;;;;;0.90;0.90;;;;;;;12.34;85.17;100117.88;5031471;28;20205;-64
2022/10/24 06:01:53;;;;;;;0.60;0.60;;;;;;;12.41;85.21;100126.25;5030911;28;20649;-63
2022/10/24 06:04:19;;;;;;;0.40;0.40;;;;;;;12.43;84.92;100127.09;5035456;28;20588;-63
2022/10/24 06:06:49;;;;;;;0.40;0.40;;;;;;;12.49;85.16;100126.94;5033113;28;20237;-63
2022/10/24 06:09:16;;;;;;;0.50;0.50;;;;;;;12.54;86.37;100130.22;5021824;28;20217;-64
2022/10/24 06:11:44;;;;;;;0.50;0.50;;;;;;;12.58;86.31;100132.66;5032330;28;20224;-64
2022/10/24 06:14:11;;;;;;;0.50;0.50;;;;;;;12.64;86.37;100137.66;5033120;28;20207;-64
2022/10/24 06:16:38;;;;;;;0.60;0.60;;;;;;;12.72;86.28;100134.03;5032766;28;20198;-63
2022/10/24 06:19:05;;;;;;;0.40;0.40;;;;;;;12.79;87.32;100135.56;5033451;28;20702;-63
2022/10/24 06:21:31;;;;;;;0.50;0.50;;;;;;;12.81;88.44;100129.47;5031634;28;20256;-64
2022/10/24 06:23:58;;;;;;;0.57;0.57;;;;;;;12.87;87.28;100134.44;5030933;28;20198;-64
2022/10/24 06:26:25;;;;;;;0.60;0.60;;;;;;;12.94;87.71;100135.13;5033206;28;20214;-64
2022/10/24 06:28:54;;;;;;;0.50;0.50;;;;;;;13.02;87.11;100128.84;5025971;28;20216;-63
2022/10/24 06:31:21;;;;;;;0.50;0.50;;;;;;;13.08;87.24;100139.03;5026532;28;20247;-64
2022/10/24 06:33:48;;;;;;;0.50;0.50;;;;;;;13.18;86.44;100149.06;5031995;28;20673;-64
2022/10/24 06:36:15;;;;;;;0.60;0.60;;;;;;;13.19;86.19;100131.00;5031563;28;20211;-64
2022/10/24 06:38:41;;;;;;;0.50;0.50;;;;;;;13.36;85.41;100140.78;5031782;28;20209;-63
2022/10/24 06:41:10;;;;;;;0.60;0.60;;;;;;;13.43;84.93;100143.16;5032717;28;20259;-64
2022/10/24 06:43:37;;;;;;;0.50;0.50;;;;;;;13.58;85.37;100147.00;5032262;28;20211;-64
2022/10/24 06:46:11;;;;;;;0.60;0.60;;;;;;;13.65;85.26;100151.06;5032330;28;20209;-64
2022/10/24 06:48:38;;;;;;;0.60;0.60;;;;;;;13.74;84.39;100142.19;5032102;28;20209;-63
2022/10/24 06:51:05;;;;;;;0.60;0.60;;;;;;;13.86;83.06;100147.00;5029548;28;20585;-63
2022/10/24 06:53:33;;;;;;;0.47;0.47;;;;;;;13.92;83.20;100150.22;5032055;28;20205;-63
2022/10/24 06:56:00;;;;;;;0.50;0.50;;;;;;;14.00;83.34;100143.06;5032201;28;20209;-64
2022/10/24 06:58:30;;;;;;;0.40;0.40;;;;;;;14.06;82.85;100142.03;5023800;28;20209;-63
2022/10/24 07:00:57;;;;;;;0.50;0.50;;;;;;;14.20;82.21;100150.16;5029887;28;20443;-65
2022/10/24 07:03:26;;;;;;;0.70;0.70;;;;;;;14.36;81.29;100130.72;5033602;28;20209;-65
2022/10/24 07:05:52;;;;;;;1.10;1.10;;;;;;;14.53;80.66;100138.75;5032674;28;20210;-65
2022/10/24 07:08:19;;;;;;;0.60;0.60;;;;;;;14.44;80.35;100120.97;5028592;28;20228;-66
2022/10/24 07:10:46;;;;;;;0.53;0.53;;;;;;;14.72;79.89;100144.09;5036758;28;20578;-64
2022/10/24 07:13:13;;;;;;;0.60;0.60;;;;;;;14.90;79.34;100147.75;5031080;28;20585;-65
2022/10/24 07:15:40;;;;;;;0.60;0.60;;;;;;;14.78;79.35;100114.66;5026648;28;20198;-65
2022/10/24 07:18:07;;;;;;;0.57;0.57;;;;;;;15.26;78.74;100151.59;5024960;28;20208;-65
2022/10/24 07:20:35;;;;;;;0.60;0.60;;;;;;;15.47;78.00;100142.19;5033321;28;20216;-64
2022/10/24 07:23:02;;;;;;;0.60;0.60;;;;;;;15.61;76.92;100135.63;5030272;28;20258;-64
2022/10/24 07:25:29;;;;;;;0.70;0.70;;;;;;;15.85;76.53;100140.72;5033485;28;20210;-64
2022/10/24 07:27:55;;;;;;;0.60;0.60;;;;;;;16.06;75.46;100140.69;5031426;28;20205;-70
2022/10/24 07:30:22;;;;;;;0.50;0.50;;;;;;;16.28;74.25;100130.31;5029413;28;20213;-69
2022/10/24 07:32:49;;;;;;;0.80;0.80;;;;;;;16.49;73.73;100139.75;5026745;28;20198;-67
2022/10/24 07:35:16;;;;;;;0.60;0.60;;;;;;;16.72;73.12;100134.47;5029126;28;20193;-66
2022/10/24 07:37:44;;;;;;;0.77;0.77;;;;;;;16.97;73.19;100130.78;5030645;28;20216;-66
2022/10/24 07:40:12;;;;;;;0.60;0.60;;;;;;;17.21;71.18;100138.31;5028790;28;20209;-67
2022/10/24 07:42:39;;;;;;;0.40;0.40;;;;;;;17.38;69.71;100132.38;5028566;28;20216;-66
2022/10/24 07:45:07;;;;;;;0.50;0.50;;;;;;;17.62;69.54;100140.75;5029548;28;20276;-65
2022/10/24 07:47:34;;;;;;;0.40;0.40;;;;;;;17.91;68.52;100149.75;5027995;28;20205;-65
2022/10/24 07:50:01;;;;;;;0.50;0.50;;;;;;;18.06;67.68;100146.44;5031212;28;20592;-66
2022/10/24 07:52:28;;;;;;;0.53;0.53;;;;;;;18.18;67.97;100143.22;5027322;28;20212;-64
2022/10/24 07:54:56;;;;;;;0.37;0.37;;;;;;;18.35;66.78;100140.63;5030528;28;20681;-67
2022/10/24 07:57:24;;;;;;;0.83;0.83;;;;;;;18.51;67.25;100136.38;5018288;28;20233;-66
2022/10/24 07:59:51;;;;;;;0.43;0.43;;;;;;;18.70;65.06;100124.13;5027753;28;20299;-65
2022/10/24 08:02:18;;;;;;;0.53;0.53;;;;;;;18.83;65.27;100130.38;5025051;28;20208;-68
2022/10/24 08:04:45;;;;;;;0.60;0.60;;;;;;;18.97;64.80;100131.38;5027801;28;20224;-68
2022/10/24 08:07:12;;;;;;;0.60;0.60;;;;;;;19.06;64.67;100120.50;5030570;28;20715;-68
2022/10/24 08:09:40;;;;;;;0.50;0.50;;;;;;;19.16;64.45;100117.31;5027638;28;20248;-68
2022/10/24 08:12:09;;;;;;;0.50;0.50;;;;;;;19.34;62.89;100121.53;5024535;28;20304;-65
2022/10/24 08:14:37;;;;;;;0.40;0.40;;;;;;;19.50;64.43;100121.56;5028383;28;20209;-65
2022/10/24 08:17:04;;;;;;;0.40;0.40;;;;;;;19.60;61.84;100127.94;5030672;28;20670;-64
2022/10/24 08:19:31;;;;;;;0.37;0.37;;;;;;;19.68;61.29;100115.31;5029163;28;20290;-65
2022/10/24 08:21:59;;;;;;;0.30;0.30;;;;;;;19.89;62.58;100129.75;5030616;28;21687;-64
2022/10/24 08:24:26;;;;;;;0.50;0.50;;;;;;;19.98;62.15;100127.53;5029115;28;20209;-65
2022/10/24 08:26:54;;;;;;;0.40;0.40;;;;;;;20.15;59.87;100124.81;5030026;28;20196;-65
2022/10/24 08:29:24;;;;;;;0.50;0.50;;;;;;;20.26;60.28;100128.47;5026861;28;20598;-64
2022/10/24 08:31:52;;;;;;;0.43;0.43;;;;;;;20.41;60.17;100111.13;5023977;28;20695;-65
2022/10/24 08:34:19;;;;;;;0.40;0.40;;;;;;;20.52;59.50;100115.72;5028495;28;20815;-65
2022/10/24 08:36:47;;;;;;;0.30;0.30;;;;;;;20.67;58.64;100113.03;5021961;28;20720;-65
2022/10/24 08:39:15;;;;;;;0.40;0.40;;;;;;;20.76;57.57;100094.22;5027039;28;20212;-65
2022/10/24 08:41:45;;;;;;;0.50;0.50;;;;;;;20.96;58.34;100108.63;5027329;28;20269;-65
2022/10/24 08:44:21;;;;;;;0.50;0.50;;;;;;;21.07;56.87;100110.56;5031022;28;20291;-64
2022/10/24 08:46:55;;;;;;;0.40;0.40;;;;;;;21.30;56.44;100102.19;5031132;28;20262;-65
2022/10/24 08:49:30;;;;;;;0.60;0.60;;;;;;;21.42;56.36;100104.03;5032769;28;20673;-65
2022/10/24 08:52:00;;;;;;;0.30;0.30;;;;;;;21.45;56.19;100094.22;5028717;28;20251;-64
2022/10/24 08:54:31;;;;;;;0.93;0.93;;;;;;;21.68;54.72;100099.75;5023709;28;20192;-65
2022/10/24 08:56:58;;;;;;;0.40;0.40;;;;;;;21.65;56.17;100077.28;5025784;28;20200;-64
2022/10/24 08:59:28;;;;;;;0.73;0.73;;;;;;;21.78;53.62;100083.38;5024895;28;20216;-66
2022/10/24 09:02:00;;;;;;;0.40;0.40;;;;;;;22.02;53.57;100091.41;5017047;28;20213;-65
2022/10/24 09:04:34;;;;;;;0.30;0.30;;;;;;;22.05;54.49;100093.81;5030448;28;20198;-65
2022/10/24 09:07:01;;;;;;;0.40;0.40;;;;;;;22.14;53.80;100094.97;5028735;28;20228;-64
2022/10/24 09:09:34;;;;;;;0.50;0.50;;;;;;;22.24;54.31;100085.59;5027970;28;20232;-65
2022/10/24 09:12:03;;;;;;;0.70;0.70;;;;;;;22.23;52.55;100095.19;5033534;28;20693;-65
2022/10/24 09:14:31;;;;;;;0.40;0.40;;;;;;;22.31;53.29;100082.47;5032057;28;20209;-65
2022/10/24 09:17:06;;;;;;;0.40;0.40;;;;;;;22.37;53.08;100082.06;5034025;28;20699;-64
2022/10/24 09:19:33;;;;;;;0.40;0.40;;;;;;;22.39;52.59;100074.13;5030295;28;20687;-65
2022/10/24 09:22:01;;;;;;;0.40;0.40;;;;;;;22.45;52.20;100063.25;5033086;28;20205;-65
2022/10/24 09:24:37;;;;;;;0.23;0.23;;;;;;;22.54;52.38;100067.00;5034957;28;20220;-65
2022/10/24 09:27:10;;;;;;;0.50;0.50;;;;;;;22.63;51.69;100061.97;5033736;28;20200;-66
2022/10/24 09:29:37;;;;;;;0.53;0.53;;;;;;;22.59;52.68;100064.88;5032762;28;20211;-65
2022/10/24 09:32:16;;;;;;;0.40;0.40;;;;;;;22.59;51.66;100063.13;5030700;28;20217;-67
2022/10/24 09:34:43;;;;;;;0.20;0.20;;;;;;;22.62;51.79;100064.72;5029096;28;20687;-66
2022/10/24 09:37:36;;;;;;;0.30;0.30;;;;;;;22.64;51.44;100057.59;5031983;28;20212;-66
2022/10/24 09:40:18;;;;;;;0.20;0.20;;;;;;;22.85;52.28;100056.94;5031773;28;20206;-66
2022/10/24 09:42:52;;;;;;;0.30;0.30;;;;;;;22.99;51.53;100048.97;5031014;28;20263;-66
2022/10/24 09:45:32;;;;;;;0.30;0.30;;;;;;;22.96;51.71;100046.56;5029942;28;20204;-66
2022/10/24 09:48:03;;;;;;;0.83;0.47;;;;;;;22.91;50.65;100037.38;5029337;28;20209;-66
2022/10/24 09:50:34;;;;;;;0.40;0.40;;;;;;;22.98;51.27;100026.38;5027039;28;20307;-67
2022/10/24 09:53:03;;;;;;;0.40;0.40;;;;;;;23.02;51.49;100027.00;5021395;28;20213;-66
2022/10/24 09:55:30;;;;;;;0.40;0.40;;;;;;;23.10;50.79;100023.84;5030720;28;20696;-67
2022/10/24 09:58:04;;;;;;;0.40;0.40;;;;;;;23.00;50.58;99997.50;5031193;28;20205;-66
2022/10/24 10:00:33;;;;;;;0.40;0.40;;;;;;;23.11;49.47;100004.56;5029879;28;20209;-66
2022/10/24 10:03:03;;;;;;;0.40;0.40;;;;;;;23.24;49.47;100021.03;5031957;28;20612;-66
2022/10/24 10:05:43;;;;;;;1.03;1.03;;;;;;;23.24;49.93;100013.19;5031603;28;20212;-66
2022/10/24 10:08:12;;;;;;;0.70;0.70;;;;;;;23.28;50.54;100006.78;5018131;28;20665;-68
2022/10/24 10:10:40;;;;;;;0.43;0.43;;;;;;;23.26;49.54;100004.31;5010131;28;21238;-66
2022/10/24 10:13:21;;;;;;;0.30;0.30;;;;;;;23.32;50.08;99989.94;5011132;28;20438;-65
2022/10/24 10:15:50;;;;;;;0.30;0.30;;;;;;;23.34;49.29;99988.03;5011673;28;20724;-66
2022/10/24 10:18:32;;;;;;;0.40;0.40;;;;;;;23.40;50.29;99987.59;5012794;28;20214;-66
2022/10/24 10:21:02;;;;;;;0.40;0.40;;;;;;;23.33;49.37;99988.97;5009598;28;20202;-66
2022/10/24 10:23:32;;;;;;;0.30;0.30;;;;;;;23.46;49.06;99974.06;5011571;28;20685;-65
2022/10/24 10:26:18;;;;;;;0.27;0.27;;;;;;;23.61;49.37;99979.97;5013985;28;20693;-65
2022/10/24 10:29:01;;;;;;;0.30;0.30;;;;;;;23.72;49.56;99975.56;5010684;28;20256;-64
2022/10/24 10:31:37;;;;;;;0.30;0.30;;;;;;;23.81;48.53;99979.31;5006292;28;20225;-65
2022/10/24 10:34:21;;;;;;;0.47;0.47;;;;;;;23.97;47.68;99975.38;5004058;28;20208;-66
2022/10/24 10:37:09;;;;;;;0.30;0.30;;;;;;;24.00;48.00;99975.19;5010316;28;20299;-65
2022/10/24 10:39:54;;;;;;;0.30;0.30;;;;;;;24.02;48.01;99962.78;5009172;28;20972;-66
2022/10/24 10:42:33;;;;;;;0.40;0.40;;;;;;;24.24;47.47;99972.47;5012513;28;20256;-66
2022/10/24 10:45:14;;;;;;;0.30;0.30;;;;;;;24.35;47.47;99964.63;5006889;28;20202;-65
2022/10/24 10:47:54;;;;;;;0.40;0.40;;;;;;;24.48;47.34;99959.25;5015117;28;20446;-69
2022/10/24 10:50:35;;;;;;;0.40;0.40;;;;;;;24.73;47.51;99958.97;5013687;28;20692;-69
2022/10/24 10:53:17;;;;;;;0.30;0.30;;;;;;;24.74;46.03;99955.41;5013273;28;20669;-68
2022/10/24 10:55:51;;;;;;;0.30;0.30;;;;;;;24.87;46.58;99942.16;5013350;28;20194;-68
2022/10/24 10:58:30;;;;;;;0.30;0.30;;;;;;;24.89;46.71;99945.50;5009983;28;20201;-68
2022/10/24 11:01:05;;;;;;;0.30;0.30;;;;;;;24.99;47.46;99949.03;5013428;28;20194;-68
2022/10/24 11:03:42;;;;;;;0.20;0.20;;;;;;;24.99;46.07;99938.56;5013739;28;20207;-69
2022/10/24 11:06:25;;;;;;;0.30;0.30;;;;;;;25.04;45.71;99937.22;5020103;28;20209;-66
2022/10/24 11:09:18;;;;;;;0.20;0.20;;;;;;;25.16;46.48;99930.16;5033177;28;20231;-66
2022/10/24 11:11:48;;;;;;;0.20;0.20;;;;;;;25.19;47.48;99922.03;5026979;28;20214;-66
2022/10/24 11:14:28;;;;;;;0.20;0.20;;;;;;;25.32;46.32;99927.09;5024957;28;20216;-67
2022/10/24 11:16:58;;;;;;;0.30;0.30;;;;;;;25.35;45.23;99921.59;5018798;28;20676;-68
2022/10/24 11:19:32;;;;;;;0.20;0.20;;;;;;;25.42;45.09;99926.22;5019156;28;20208;-69
2022/10/24 11:22:04;;;;;;;0.20;0.20;;;;;;;25.51;45.01;99927.25;5023638;28;20205;-67
2022/10/24 11:24:38;;;;;;;0.30;0.30;;;;;;;25.47;45.38;99921.38;5022437;28;20661;-69
2022/10/24 11:27:45;;;;;;;0.40;0.40;;;;;;;25.48;44.66;99914.34;5033157;28;20636;-67
2022/10/24 11:30:16;;;;;;;0.20;0.20;;;;;;;25.45;45.92;99914.63;5018481;28;20197;-66
2022/10/24 11:32:49;;;;;;;0.20;0.20;;;;;;;25.50;45.53;99901.94;5020684;28;20697;-69
2022/10/24 11:35:27;;;;;;;0.20;0.20;;;;;;;25.55;45.21;99905.03;5022907;28;20202;-68
2022/10/24 11:37:59;;;;;;;0.20;0.20;;;;;;;25.61;45.20;99898.44;5020188;28;20299;-72
2022/10/24 11:40:29;;;;;;;0.20;0.20;;;;;;;25.71;44.80;99888.81;5023975;28;20210;-69